createdAt,value
2022-12-13T00:01:25.283Z,99.70
2022-12-13T00:03:56.451Z,99.60
2022-12-13T00:06:25.190Z,99.90
2022-12-13T00:08:52.799Z,99.60
2022-12-13T00:11:20.024Z,99.50
2022-12-13T00:13:48.021Z,99.60
2022-12-13T00:16:22.237Z,99.70
2022-12-13T00:18:55.491Z,99.80
2022-12-13T00:21:24.698Z,99.90
2022-12-13T00:23:51.597Z,99.90
2022-12-13T00:26:21.126Z,99.90
2022-12-13T00:28:49.509Z,99.90
2022-12-13T00:31:53.483Z,99.90
2022-12-13T00:34:06.537Z,99.90
2022-12-13T00:36:33.355Z,99.90
2022-12-13T00:39:00.649Z,99.90
2022-12-13T00:41:33.108Z,99.90
2022-12-13T00:44:01.148Z,99.90
2022-12-13T00:46:29.055Z,99.90
2022-12-13T00:48:58.615Z,99.90
2022-12-13T00:51:27.008Z,99.90
2022-12-13T00:53:53.897Z,99.90
2022-12-13T00:56:25.429Z,99.90
2022-12-13T00:58:53.303Z,99.90
2022-12-13T01:01:24.410Z,99.90
2022-12-13T01:03:54.773Z,99.90
2022-12-13T01:06:43.023Z,99.90
2022-12-13T01:09:27.289Z,99.90
2022-12-13T01:11:58.736Z,99.90
2022-12-13T01:14:25.934Z,99.90
2022-12-13T01:16:56.000Z,99.90
2022-12-13T01:19:27.447Z,99.90
2022-12-13T01:21:55.842Z,99.90
2022-12-13T01:24:24.820Z,99.90
2022-12-13T01:26:52.920Z,99.90
2022-12-13T01:29:26.247Z,99.90
2022-12-13T01:31:54.056Z,99.90
2022-12-13T01:34:26.376Z,99.90
2022-12-13T01:36:58.053Z,99.90
2022-12-13T01:39:27.045Z,99.90
2022-12-13T01:42:03.378Z,99.90
2022-12-13T01:44:52.174Z,99.90
2022-12-13T01:47:26.189Z,99.90
2022-12-13T01:49:56.064Z,99.90
2022-12-13T01:52:28.368Z,99.90
2022-12-13T01:55:03.173Z,99.90
2022-12-13T01:57:33.061Z,99.90
2022-12-13T02:00:00.043Z,99.90
2022-12-13T02:02:26.808Z,99.90
2022-12-13T02:05:04.610Z,99.90
2022-12-13T02:07:33.845Z,99.90
2022-12-13T02:10:04.178Z,99.90
2022-12-13T02:12:33.393Z,99.90
2022-12-13T02:15:03.072Z,99.90
2022-12-13T02:17:29.746Z,99.90
2022-12-13T02:20:30.759Z,99.90
2022-12-13T02:23:23.962Z,99.90
2022-12-13T02:25:56.741Z,99.90
2022-12-13T02:28:54.941Z,99.90
2022-12-13T02:31:32.121Z,99.90
2022-12-13T02:34:07.110Z,99.90
2022-12-13T02:36:37.934Z,99.90
2022-12-13T02:39:29.741Z,99.90
2022-12-13T02:42:05.723Z,99.90
2022-12-13T02:44:39.890Z,99.90
2022-12-13T02:47:23.263Z,99.90
2022-12-13T02:49:54.069Z,99.90
2022-12-13T02:52:25.286Z,99.90
2022-12-13T02:54:55.517Z,99.90
2022-12-13T02:57:38.195Z,99.90
2022-12-13T03:00:12.341Z,99.90
2022-12-13T03:03:04.055Z,99.90
2022-12-13T03:06:07.275Z,99.90
2022-12-13T03:08:45.860Z,99.90
2022-12-13T03:11:18.939Z,99.90
2022-12-13T03:13:53.090Z,99.90
2022-12-13T03:16:40.126Z,99.90
2022-12-13T03:19:09.192Z,99.90
2022-12-13T03:21:47.985Z,99.90
2022-12-13T03:24:20.775Z,99.90
2022-12-13T03:26:49.602Z,99.90
2022-12-13T03:29:23.904Z,99.90
2022-12-13T03:31:53.148Z,99.90
2022-12-13T03:34:22.814Z,99.90
2022-12-13T03:36:52.047Z,99.90
2022-12-13T03:39:19.304Z,99.90
2022-12-13T03:41:46.156Z,99.90
2022-12-13T03:44:12.990Z,99.90
2022-12-13T03:46:39.843Z,99.90
2022-12-13T03:49:06.562Z,99.90
2022-12-13T03:51:33.362Z,99.90
2022-12-13T03:54:00.132Z,99.90
2022-12-13T03:56:26.774Z,99.90
2022-12-13T03:58:53.553Z,99.90
2022-12-13T04:01:20.459Z,99.90
2022-12-13T04:03:48.061Z,99.90
2022-12-13T04:06:22.867Z,99.90
2022-12-13T04:08:52.380Z,99.90
2022-12-13T04:11:42.927Z,99.90
2022-12-13T04:14:11.169Z,99.90
2022-12-13T04:16:38.194Z,99.90
2022-12-13T04:19:05.009Z,99.90
2022-12-13T04:21:31.818Z,99.90
2022-12-13T04:24:01.069Z,99.90
2022-12-13T04:26:28.565Z,99.90
2022-12-13T04:28:55.620Z,99.90
2022-12-13T04:31:22.678Z,99.90
2022-12-13T04:33:49.735Z,99.90
2022-12-13T04:36:31.995Z,99.90
2022-12-13T04:39:01.089Z,99.90
2022-12-13T04:41:34.289Z,99.90
2022-12-13T04:44:01.544Z,99.90
2022-12-13T04:46:28.250Z,99.90
2022-12-13T04:48:54.966Z,99.90
2022-12-13T04:51:21.810Z,99.90
2022-12-13T04:53:48.664Z,99.90
2022-12-13T04:56:15.707Z,99.90
2022-12-13T04:58:42.708Z,99.90
2022-12-13T05:01:11.197Z,99.90
2022-12-13T05:03:38.995Z,99.90
2022-12-13T05:06:26.634Z,99.90
2022-12-13T05:08:54.600Z,99.90
2022-12-13T05:11:22.853Z,99.90
2022-12-13T05:13:49.995Z,99.90
2022-12-13T05:16:17.006Z,99.90
2022-12-13T05:18:51.738Z,99.90
2022-12-13T05:21:18.419Z,99.90
2022-12-13T05:23:45.139Z,99.90
2022-12-13T05:26:11.883Z,99.90
2022-12-13T05:28:38.709Z,99.90
2022-12-13T05:31:22.647Z,99.90
2022-12-13T05:33:51.728Z,99.90
2022-12-13T05:36:18.768Z,99.90
2022-12-13T05:38:45.678Z,99.90
2022-12-13T05:41:18.441Z,99.90
2022-12-13T05:43:45.286Z,99.90
2022-12-13T05:46:15.435Z,99.90
2022-12-13T05:48:42.805Z,99.90
2022-12-13T05:51:11.824Z,99.90
2022-12-13T05:53:42.923Z,99.90
2022-12-13T05:56:11.363Z,99.90
2022-12-13T05:58:39.922Z,99.90
2022-12-13T06:01:12.954Z,99.80
2022-12-13T06:03:41.006Z,99.70
2022-12-13T06:06:09.983Z,99.80
2022-12-13T06:08:37.429Z,99.80
2022-12-13T06:11:09.924Z,99.80
2022-12-13T06:13:42.751Z,99.90
2022-12-13T06:16:22.650Z,99.90
2022-12-13T06:18:55.832Z,99.90
2022-12-13T06:21:29.554Z,99.90
2022-12-13T06:23:57.981Z,99.90
2022-12-13T06:26:24.727Z,99.90
2022-12-13T06:28:51.524Z,99.80
2022-12-13T06:31:18.386Z,99.60
2022-12-13T06:33:45.138Z,99.40
2022-12-13T06:36:11.877Z,99.60
2022-12-13T06:38:43.275Z,99.50
2022-12-13T06:41:11.896Z,99.50
2022-12-13T06:43:41.830Z,99.50
2022-12-13T06:46:09.209Z,99.40
2022-12-13T06:48:36.422Z,99.50
2022-12-13T06:51:04.841Z,99.50
2022-12-13T06:53:32.256Z,99.60
2022-12-13T06:56:04.632Z,99.50
2022-12-13T06:58:32.077Z,99.60
2022-12-13T07:01:23.955Z,99.50
2022-12-13T07:03:54.797Z,99.50
2022-12-13T07:06:23.557Z,99.50
2022-12-13T07:08:53.120Z,99.40
2022-12-13T07:11:23.065Z,99.30
2022-12-13T07:13:50.541Z,99.30
2022-12-13T07:16:18.272Z,99.20
2022-12-13T07:18:45.727Z,99.30
2022-12-13T07:21:21.317Z,99.10
2022-12-13T07:23:55.433Z,99.10
2022-12-13T07:26:22.943Z,99.20
2022-12-13T07:28:54.766Z,99.20
2022-12-13T07:31:24.282Z,99.20
2022-12-13T07:33:51.820Z,99.20
2022-12-13T07:36:21.341Z,99.10
2022-12-13T07:38:56.330Z,99.10
2022-12-13T07:41:24.734Z,99.20
2022-12-13T07:43:55.150Z,99.20
2022-12-13T07:46:33.412Z,99.20
2022-12-13T07:49:05.302Z,99.30
2022-12-13T07:51:34.936Z,99.20
2022-12-13T07:54:06.815Z,99.20
2022-12-13T07:56:34.925Z,99.20
2022-12-13T07:59:02.529Z,99.30
2022-12-13T08:01:31.215Z,99.40
2022-12-13T08:03:57.972Z,99.40
2022-12-13T08:06:24.740Z,99.30
2022-12-13T08:08:58.045Z,99.10
2022-12-13T08:11:25.096Z,99.00
2022-12-13T08:13:53.858Z,98.70
2022-12-13T08:16:27.428Z,98.90
2022-12-13T08:19:01.157Z,98.90
2022-12-13T08:21:58.548Z,99.00
2022-12-13T08:24:29.789Z,98.80
2022-12-13T08:27:01.434Z,98.90
2022-12-13T08:29:33.891Z,99.00
2022-12-13T08:32:07.066Z,99.00
2022-12-13T08:34:33.883Z,99.20
2022-12-13T08:37:01.625Z,99.10
2022-12-13T08:39:34.112Z,99.20
2022-12-13T08:42:16.524Z,99.20
2022-12-13T08:44:52.890Z,99.30
2022-12-13T08:47:26.628Z,99.40
2022-12-13T08:50:04.083Z,99.40
2022-12-13T08:52:39.242Z,99.50
2022-12-13T08:55:12.446Z,99.50
2022-12-13T08:57:40.794Z,99.50
2022-12-13T09:00:09.665Z,99.50
2022-12-13T09:02:37.960Z,99.50
2022-12-13T09:05:07.355Z,99.40
2022-12-13T09:07:36.193Z,99.30
2022-12-13T09:10:07.234Z,99.80
2022-12-13T09:12:53.645Z,99.60
2022-12-13T09:15:34.226Z,99.70
2022-12-13T09:18:04.516Z,99.70
2022-12-13T09:20:32.571Z,99.90
2022-12-13T09:23:08.485Z,99.90
2022-12-13T09:25:41.202Z,99.90
2022-12-13T09:28:09.522Z,99.80
2022-12-13T09:30:38.358Z,99.90
2022-12-13T09:33:17.937Z,99.90
2022-12-13T09:35:52.608Z,99.90
2022-12-13T09:38:19.916Z,99.80
2022-12-13T09:40:49.168Z,99.90
2022-12-13T09:43:31.815Z,99.90
2022-12-13T09:46:01.977Z,99.90
2022-12-13T09:48:34.485Z,99.30
2022-12-13T09:51:27.253Z,99.30
2022-12-13T09:53:52.600Z,99.40
2022-12-13T09:56:21.210Z,99.50
2022-12-13T09:58:50.211Z,99.30
2022-12-13T10:01:22.645Z,99.30
2022-12-13T10:03:52.481Z,99.20
2022-12-13T10:06:22.672Z,99.00
2022-12-13T10:08:58.487Z,98.90
2022-12-13T10:11:32.412Z,98.90
2022-12-13T10:14:12.426Z,98.90
2022-12-13T10:16:50.101Z,98.70
2022-12-13T10:19:40.951Z,98.70
2022-12-13T10:22:16.444Z,98.70
2022-12-13T10:25:04.608Z,98.60
2022-12-13T10:27:39.195Z,98.60
2022-12-13T10:30:16.574Z,98.60
2022-12-13T10:32:59.475Z,98.60
2022-12-13T10:35:30.427Z,98.40
2022-12-13T10:38:00.732Z,98.40
2022-12-13T10:40:35.082Z,98.70
2022-12-13T10:43:12.486Z,98.30
2022-12-13T10:45:40.113Z,98.30
2022-12-13T10:48:19.676Z,98.10
2022-12-13T10:50:59.564Z,98.30
2022-12-13T10:53:34.264Z,97.80
2022-12-13T10:56:02.815Z,97.90
2022-12-13T10:58:42.404Z,98.10
2022-12-13T11:01:31.773Z,98.20
2022-12-13T11:04:02.274Z,98.20
2022-12-13T11:06:43.443Z,98.00
2022-12-13T11:09:24.309Z,98.10
2022-12-13T11:11:58.120Z,98.20
2022-12-13T11:14:38.866Z,98.10
2022-12-13T11:17:16.060Z,98.10
2022-12-13T11:19:49.137Z,98.10
2022-12-13T11:22:29.396Z,98.00
2022-12-13T11:25:03.103Z,98.00
2022-12-13T11:27:32.996Z,98.00
2022-12-13T11:30:12.690Z,98.00
2022-12-13T11:33:12.679Z,97.70
2022-12-13T11:35:51.928Z,97.70
2022-12-13T11:38:49.660Z,97.50
2022-12-13T11:41:33.109Z,97.40
2022-12-13T11:44:12.686Z,97.10
2022-12-13T11:46:46.802Z,97.40
2022-12-13T11:49:18.169Z,97.40
2022-12-13T11:51:56.011Z,97.40
2022-12-13T11:55:03.639Z,97.30
2022-12-13T11:58:16.423Z,97.20
2022-12-13T12:00:54.262Z,97.20
2022-12-13T12:03:35.161Z,97.20
2022-12-13T12:06:15.424Z,97.00
2022-12-13T12:09:04.639Z,97.00
2022-12-13T12:11:51.399Z,96.90
2022-12-13T12:14:39.950Z,96.60
2022-12-13T12:17:07.109Z,96.20
2022-12-13T12:19:39.724Z,96.30
2022-12-13T12:22:37.729Z,96.20
2022-12-13T12:25:32.047Z,96.20
2022-12-13T12:28:10.859Z,96.10
2022-12-13T12:30:55.961Z,96.10
2022-12-13T12:33:25.814Z,96.00
2022-12-13T12:36:30.175Z,95.80
2022-12-13T12:39:11.910Z,96.00
2022-12-13T12:41:50.798Z,96.10
2022-12-13T12:44:35.402Z,95.80
2022-12-13T12:47:31.920Z,95.90
2022-12-13T12:50:24.300Z,96.00
2022-12-13T12:53:18.137Z,96.20
2022-12-13T12:56:05.896Z,96.10
2022-12-13T12:58:47.820Z,96.40
2022-12-13T13:01:44.158Z,96.20
2022-12-13T13:04:14.226Z,96.30
2022-12-13T13:07:02.531Z,96.20
2022-12-13T13:09:31.184Z,96.30
2022-12-13T13:12:29.021Z,96.00
2022-12-13T13:14:49.985Z,96.00
2022-12-13T13:17:16.598Z,96.00
2022-12-13T13:19:48.042Z,96.20
2022-12-13T13:22:32.363Z,96.20
2022-12-13T13:25:21.935Z,95.70
2022-12-13T13:27:51.577Z,95.80
2022-12-13T13:30:25.815Z,95.90
2022-12-13T13:32:55.014Z,96.30
2022-12-13T13:35:30.912Z,95.80
2022-12-13T13:38:18.832Z,96.00
2022-12-13T13:40:45.569Z,95.80
2022-12-13T13:43:12.676Z,95.90
2022-12-13T13:46:02.730Z,96.10
2022-12-13T13:48:49.932Z,95.80
2022-12-13T13:51:49.433Z,95.70
2022-12-13T13:54:45.978Z,95.80
2022-12-13T13:57:52.265Z,96.30
2022-12-13T14:00:19.397Z,96.90
2022-12-13T14:03:32.853Z,97.00
2022-12-13T14:06:17.370Z,97.10
2022-12-13T14:09:21.673Z,97.10
2022-12-13T14:11:57.792Z,97.30
2022-12-13T14:14:43.341Z,97.40
2022-12-13T14:17:58.182Z,97.40
2022-12-13T14:20:55.119Z,97.70
2022-12-13T14:24:07.747Z,97.70
2022-12-13T14:26:54.324Z,97.80
2022-12-13T14:29:31.490Z,97.70
2022-12-13T14:31:59.007Z,97.90
2022-12-13T14:34:30.754Z,97.90
2022-12-13T14:37:04.105Z,97.90
2022-12-13T14:39:34.146Z,98.00
2022-12-13T14:42:02.815Z,98.00
2022-12-13T14:44:34.048Z,97.90
2022-12-13T14:47:07.721Z,98.10
2022-12-13T14:49:39.056Z,97.90
2022-12-13T14:52:32.382Z,97.90
2022-12-13T14:55:04.332Z,97.90
2022-12-13T14:57:33.197Z,97.80
2022-12-13T15:00:20.463Z,98.00
2022-12-13T15:02:56.317Z,98.40
2022-12-13T15:05:52.302Z,98.20
2022-12-13T15:08:20.175Z,98.20
2022-12-13T15:11:00.291Z,98.60
2022-12-13T15:13:37.093Z,98.10
2022-12-13T15:16:11.216Z,98.30
2022-12-13T15:18:38.654Z,98.40
2022-12-13T15:21:23.958Z,98.60
2022-12-13T15:23:52.909Z,98.60
2022-12-13T15:26:27.685Z,98.70
2022-12-13T15:29:09.977Z,98.60
2022-12-13T15:31:38.365Z,98.70
2022-12-13T15:34:30.974Z,98.80
2022-12-13T15:37:05.546Z,98.80
2022-12-13T15:39:37.978Z,98.90
2022-12-13T15:42:05.400Z,99.00
2022-12-13T15:44:38.924Z,99.10
2022-12-13T15:47:11.941Z,99.20
2022-12-13T15:49:52.335Z,99.30
2022-12-13T15:52:41.312Z,99.20
2022-12-13T15:55:11.054Z,99.30
2022-12-13T15:57:57.223Z,99.10
2022-12-13T16:00:31.422Z,99.30
2022-12-13T16:03:16.261Z,99.40
2022-12-13T16:05:52.117Z,99.40
2022-12-13T16:08:30.701Z,99.30
2022-12-13T16:10:58.356Z,99.20
2022-12-13T16:13:29.726Z,99.20
2022-12-13T16:16:09.385Z,99.30
2022-12-13T16:18:55.072Z,99.30
2022-12-13T16:21:21.873Z,99.30
2022-12-13T16:23:49.289Z,99.10
2022-12-13T16:26:22.143Z,99.00
2022-12-13T16:28:49.145Z,99.00
2022-12-13T16:31:22.487Z,99.00
2022-12-13T16:33:49.613Z,98.90
2022-12-13T16:36:16.388Z,98.90
2022-12-13T16:38:43.220Z,98.90
2022-12-13T16:41:10.557Z,99.10
2022-12-13T16:43:42.606Z,99.00
2022-12-13T16:47:15.082Z,98.90
2022-12-13T16:49:02.196Z,98.90
2022-12-13T16:51:29.063Z,98.90
2022-12-13T16:53:56.165Z,98.90
2022-12-13T16:56:22.977Z,98.90
2022-12-13T16:58:50.742Z,98.90
2022-12-13T17:01:21.228Z,99.00
2022-12-13T17:03:48.173Z,98.90
2022-12-13T17:06:18.270Z,99.10
2022-12-13T17:08:45.070Z,99.10
2022-12-13T17:11:17.806Z,99.00
2022-12-13T17:13:47.526Z,98.90
2022-12-13T17:16:14.888Z,98.90
2022-12-13T17:18:41.858Z,98.80
2022-12-13T17:21:10.315Z,98.60
2022-12-13T17:23:37.389Z,98.70
2022-12-13T17:26:06.101Z,98.70
2022-12-13T17:28:33.669Z,98.60
2022-12-13T17:31:13.056Z,98.70
2022-12-13T17:33:40.730Z,99.00
2022-12-13T17:36:08.950Z,98.90
2022-12-13T17:38:35.889Z,99.00
2022-12-13T17:41:03.051Z,98.80
2022-12-13T17:43:35.253Z,98.80
2022-12-13T17:46:06.077Z,98.90
2022-12-13T17:48:39.594Z,98.90
2022-12-13T17:51:11.752Z,98.90
2022-12-13T17:53:40.072Z,99.10
2022-12-13T17:56:09.358Z,99.00
2022-12-13T17:58:36.169Z,98.90
2022-12-13T18:01:15.360Z,99.00
2022-12-13T18:03:42.312Z,98.90
2022-12-13T18:06:09.427Z,98.90
2022-12-13T18:08:38.282Z,98.80
2022-12-13T18:11:31.956Z,98.60
2022-12-13T18:13:54.935Z,98.70
2022-12-13T18:16:24.093Z,98.60
2022-12-13T18:18:55.231Z,98.60
2022-12-13T18:21:24.004Z,98.40
2022-12-13T18:23:54.978Z,98.60
2022-12-13T18:26:23.920Z,98.60
2022-12-13T18:28:51.442Z,98.70
2022-12-13T18:31:22.266Z,98.70
2022-12-13T18:33:50.737Z,98.40
2022-12-13T18:36:18.673Z,98.20
2022-12-13T18:38:45.733Z,98.10
2022-12-13T18:41:18.076Z,98.30
2022-12-13T18:43:45.854Z,98.20
2022-12-13T18:46:14.045Z,98.30
2022-12-13T18:48:41.430Z,98.00
2022-12-13T18:51:09.731Z,97.90
2022-12-13T18:53:37.829Z,97.90
2022-12-13T18:56:16.135Z,97.50
2022-12-13T18:58:44.935Z,97.90
2022-12-13T19:01:12.872Z,97.50
2022-12-13T19:03:40.066Z,97.80
2022-12-13T19:06:07.669Z,97.70
2022-12-13T19:08:36.567Z,97.80
2022-12-13T19:11:04.901Z,97.70
2022-12-13T19:13:32.487Z,97.80
2022-12-13T19:16:07.544Z,97.90
2022-12-13T19:18:35.252Z,98.00
2022-12-13T19:21:02.196Z,98.20
2022-12-13T19:23:29.525Z,97.80
2022-12-13T19:25:56.681Z,97.90
2022-12-13T19:28:23.565Z,98.00
2022-12-13T19:30:50.449Z,98.00
2022-12-13T19:33:17.565Z,98.00
2022-12-13T19:35:46.821Z,98.00
2022-12-13T19:38:14.176Z,97.80
2022-12-13T19:40:42.673Z,97.60
2022-12-13T19:43:10.941Z,97.40
2022-12-13T19:45:37.717Z,97.40
2022-12-13T19:48:04.694Z,97.40
2022-12-13T19:50:31.564Z,97.30
2022-12-13T19:52:58.386Z,97.30
2022-12-13T19:55:25.357Z,96.90
2022-12-13T19:57:52.726Z,97.00
2022-12-13T20:00:19.943Z,97.00
2022-12-13T20:02:46.881Z,97.10
2022-12-13T20:05:13.720Z,97.30
2022-12-13T20:07:40.902Z,97.60
2022-12-13T20:10:08.941Z,97.10
2022-12-13T20:12:40.690Z,97.10
2022-12-13T20:15:08.757Z,97.00
2022-12-13T20:17:36.111Z,96.70
2022-12-13T20:20:04.338Z,96.70
2022-12-13T20:22:32.522Z,96.70
2022-12-13T20:24:59.316Z,96.80
2022-12-13T20:27:28.352Z,96.90
2022-12-13T20:29:55.188Z,96.70
2022-12-13T20:32:21.978Z,96.30
2022-12-13T20:34:54.388Z,96.60
2022-12-13T20:37:22.141Z,96.50
2022-12-13T20:39:49.265Z,96.30
2022-12-13T20:42:16.375Z,96.60
2022-12-13T20:44:43.100Z,96.90
2022-12-13T20:47:10.086Z,97.60
2022-12-13T20:49:37.037Z,96.90
2022-12-13T20:52:04.219Z,96.90
2022-12-13T20:54:32.169Z,96.90
2022-12-13T20:57:00.274Z,96.90
2022-12-13T20:59:27.200Z,96.80
2022-12-13T21:01:54.045Z,96.90
2022-12-13T21:04:20.963Z,96.80
2022-12-13T21:06:47.686Z,96.70
2022-12-13T21:09:14.509Z,96.70
2022-12-13T21:11:44.902Z,96.60
2022-12-13T21:14:23.334Z,96.60
2022-12-13T21:16:55.161Z,96.50
2022-12-13T21:19:25.508Z,96.30
2022-12-13T21:21:53.949Z,96.40
2022-12-13T21:24:22.937Z,96.20
2022-12-13T21:26:51.372Z,96.20
2022-12-13T21:29:19.270Z,96.30
2022-12-13T21:31:50.023Z,96.20
2022-12-13T21:34:18.532Z,96.20
2022-12-13T21:36:47.838Z,96.10
2022-12-13T21:39:18.246Z,96.40
2022-12-13T21:41:47.458Z,96.10
2022-12-13T21:44:16.801Z,96.10
2022-12-13T21:49:31.083Z,96.20
2022-12-13T21:51:57.828Z,96.30
2022-12-13T21:54:24.619Z,96.30
2022-12-13T21:57:09.941Z,96.40
2022-12-13T21:59:37.021Z,96.40
2022-12-13T22:02:12.608Z,96.50
2022-12-13T22:04:43.515Z,96.60
2022-12-13T22:07:13.029Z,96.70
2022-12-13T22:09:39.926Z,96.70
2022-12-13T22:12:08.966Z,96.70
2022-12-13T22:14:36.309Z,96.70
2022-12-13T22:17:03.267Z,96.60
2022-12-13T22:19:30.080Z,96.80
2022-12-13T22:21:56.901Z,96.60
2022-12-13T22:24:23.876Z,96.80
2022-12-13T22:26:50.667Z,96.90
2022-12-13T22:29:17.518Z,96.90
2022-12-13T22:31:44.336Z,97.00
2022-12-13T22:34:16.160Z,96.90
2022-12-13T22:36:43.238Z,97.00
2022-12-13T22:39:16.925Z,97.10
2022-12-13T22:41:44.473Z,97.10
2022-12-13T22:44:12.216Z,97.20
2022-12-13T22:46:39.642Z,97.20
2022-12-13T22:49:08.380Z,97.20
2022-12-13T22:51:35.682Z,97.20
2022-12-13T22:54:03.123Z,97.20
2022-12-13T22:56:30.235Z,97.30
2022-12-13T22:58:59.031Z,97.30
2022-12-13T23:01:31.120Z,97.30
2022-12-13T23:03:59.591Z,97.40
2022-12-13T23:06:29.595Z,97.40
2022-12-13T23:08:58.534Z,97.40
2022-12-13T23:11:45.496Z,97.30
2022-12-13T23:14:15.160Z,97.20
2022-12-13T23:16:42.479Z,97.30
2022-12-13T23:19:40.307Z,97.40
2022-12-13T23:21:59.058Z,97.40
2022-12-13T23:24:26.449Z,97.40
2022-12-13T23:26:53.213Z,97.40
2022-12-13T23:29:19.929Z,97.50
2022-12-13T23:31:48.844Z,97.60
2022-12-13T23:34:16.048Z,97.60
2022-12-13T23:36:42.859Z,97.60
2022-12-13T23:39:11.042Z,97.70
2022-12-13T23:41:38.051Z,97.70
2022-12-13T23:44:05.037Z,97.60
2022-12-13T23:46:34.602Z,97.60
2022-12-13T23:49:04.688Z,97.70
2022-12-13T23:51:32.001Z,97.60
2022-12-13T23:53:59.090Z,97.80
2022-12-13T23:56:25.879Z,97.90
2022-12-13T23:58:52.690Z,97.90
